Topaz Lake, Nevada
Current Conditions -  °F | °C
As of 4:55 AM on Sunday 21 Dec 2014 (Local Time) from KMEV Reporting Station
Overcast Overcast  
Wind Chill: 55°   Ceiling: 4100
Heat Index: 55°   Visibility: 10mi
Dew Point: 39°   Wind: 7mph
Humidity: 54%   Direction: 10°N
Pressure: 30.19"   Gusts: NA
Location:  38.9417°N, 119.681°W
Report Text: KMEV 211255Z AUTO 01006KT 10SM OVC041 13/04 A3019 RMK AO2
Loading
Personal Weather Stations






























Interactive Weather Map New forecast layout! Learn more

10-Day Weather Forecast

Advertisements
Track Severe Weather on mobile